sensor_id;sensor_type;location;lat;lon;timestamp;P1;durP1;ratioP1;P2;durP2;ratioP2
18905;SDS011;9585;51.018;4.282;2023-11-21T00:01:12;23.45;;;15.40;;
18905;SDS011;9585;51.018;4.282;2023-11-21T00:03:49;24.95;;;14.77;;
18905;SDS011;9585;51.018;4.282;2023-11-21T00:06:27;23.40;;;14.23;;
18905;SDS011;9585;51.018;4.282;2023-11-21T00:08:57;21.73;;;14.50;;
18905;SDS011;9585;51.018;4.282;2023-11-21T00:11:30;21.63;;;14.20;;
18905;SDS011;9585;51.018;4.282;2023-11-21T00:14:03;20.75;;;13.20;;
18905;SDS011;9585;51.018;4.282;2023-11-21T00:16:35;20.08;;;14.02;;
18905;SDS011;9585;51.018;4.282;2023-11-21T00:19:19;18.95;;;13.30;;
18905;SDS011;9585;51.018;4.282;2023-11-21T00:21:57;27.63;;;12.90;;
18905;SDS011;9585;51.018;4.282;2023-11-21T00:24:25;17.13;;;12.02;;
18905;SDS011;9585;51.018;4.282;2023-11-21T00:26:54;20.08;;;11.88;;
18905;SDS011;9585;51.018;4.282;2023-11-21T00:29:24;19.83;;;13.60;;
18905;SDS011;9585;51.018;4.282;2023-11-21T00:31:52;22.58;;;14.65;;
18905;SDS011;9585;51.018;4.282;2023-11-21T00:34:28;22.55;;;13.82;;
18905;SDS011;9585;51.018;4.282;2023-11-21T00:36:59;20.20;;;13.43;;
18905;SDS011;9585;51.018;4.282;2023-11-21T00:39:30;17.70;;;11.43;;
18905;SDS011;9585;51.018;4.282;2023-11-21T00:42:04;16.10;;;11.15;;
18905;SDS011;9585;51.018;4.282;2023-11-21T00:44:35;15.48;;;11.10;;
18905;SDS011;9585;51.018;4.282;2023-11-21T00:47:11;16.48;;;11.48;;
18905;SDS011;9585;51.018;4.282;2023-11-21T00:49:39;15.77;;;11.15;;
18905;SDS011;9585;51.018;4.282;2023-11-21T00:52:13;16.15;;;10.25;;
18905;SDS011;9585;51.018;4.282;2023-11-21T00:54:42;14.73;;;9.25;;
18905;SDS011;9585;51.018;4.282;2023-11-21T00:57:18;13.18;;;9.18;;
18905;SDS011;9585;51.018;4.282;2023-11-21T00:59:51;15.85;;;10.57;;
18905;SDS011;9585;51.018;4.282;2023-11-21T01:02:21;13.32;;;9.65;;
18905;SDS011;9585;51.018;4.282;2023-11-21T01:04:55;12.63;;;8.50;;
18905;SDS011;9585;51.018;4.282;2023-11-21T01:07:31;12.35;;;9.27;;
18905;SDS011;9585;51.018;4.282;2023-11-21T01:10:02;11.60;;;8.18;;
18905;SDS011;9585;51.018;4.282;2023-11-21T01:12:32;14.38;;;9.38;;
18905;SDS011;9585;51.018;4.282;2023-11-21T01:15:01;13.77;;;9.43;;
18905;SDS011;9585;51.018;4.282;2023-11-21T01:17:34;9.73;;;7.18;;
18905;SDS011;9585;51.018;4.282;2023-11-21T01:20:02;10.35;;;7.47;;
18905;SDS011;9585;51.018;4.282;2023-11-21T01:22:39;10.65;;;7.20;;
18905;SDS011;9585;51.018;4.282;2023-11-21T01:25:10;15.32;;;9.18;;
18905;SDS011;9585;51.018;4.282;2023-11-21T01:27:39;18.52;;;10.93;;
18905;SDS011;9585;51.018;4.282;2023-11-21T01:30:08;32.35;;;14.85;;
18905;SDS011;9585;51.018;4.282;2023-11-21T01:32:37;30.00;;;16.05;;
18905;SDS011;9585;51.018;4.282;2023-11-21T01:35:05;28.83;;;14.82;;
18905;SDS011;9585;51.018;4.282;2023-11-21T01:37:32;29.20;;;15.20;;
18905;SDS011;9585;51.018;4.282;2023-11-21T01:40:02;31.70;;;15.93;;
18905;SDS011;9585;51.018;4.282;2023-11-21T01:42:33;23.50;;;13.50;;
18905;SDS011;9585;51.018;4.282;2023-11-21T01:45:00;26.92;;;14.13;;
18905;SDS011;9585;51.018;4.282;2023-11-21T01:47:30;31.38;;;15.38;;
18905;SDS011;9585;51.018;4.282;2023-11-21T01:49:58;31.38;;;15.88;;
18905;SDS011;9585;51.018;4.282;2023-11-21T01:52:26;29.10;;;15.48;;
18905;SDS011;9585;51.018;4.282;2023-11-21T01:54:54;21.77;;;12.82;;
18905;SDS011;9585;51.018;4.282;2023-11-21T01:57:23;25.05;;;12.98;;
18905;SDS011;9585;51.018;4.282;2023-11-21T01:59:52;30.40;;;15.80;;
18905;SDS011;9585;51.018;4.282;2023-11-21T02:02:21;30.48;;;16.17;;
18905;SDS011;9585;51.018;4.282;2023-11-21T02:04:49;27.25;;;14.85;;
18905;SDS011;9585;51.018;4.282;2023-11-21T02:07:17;31.20;;;15.85;;
18905;SDS011;9585;51.018;4.282;2023-11-21T02:09:45;30.08;;;16.63;;
18905;SDS011;9585;51.018;4.282;2023-11-21T02:12:13;28.02;;;15.68;;
18905;SDS011;9585;51.018;4.282;2023-11-21T02:14:43;28.08;;;16.05;;
18905;SDS011;9585;51.018;4.282;2023-11-21T02:17:11;31.35;;;15.88;;
18905;SDS011;9585;51.018;4.282;2023-11-21T02:19:39;27.13;;;14.50;;
18905;SDS011;9585;51.018;4.282;2023-11-21T02:22:08;30.95;;;15.48;;
18905;SDS011;9585;51.018;4.282;2023-11-21T02:24:41;22.42;;;13.15;;
18905;SDS011;9585;51.018;4.282;2023-11-21T02:27:09;28.25;;;15.20;;
18905;SDS011;9585;51.018;4.282;2023-11-21T02:29:38;26.25;;;14.65;;
18905;SDS011;9585;51.018;4.282;2023-11-21T02:32:06;31.65;;;15.77;;
18905;SDS011;9585;51.018;4.282;2023-11-21T02:34:36;27.85;;;14.73;;
18905;SDS011;9585;51.018;4.282;2023-11-21T02:37:04;24.63;;;13.60;;
18905;SDS011;9585;51.018;4.282;2023-11-21T02:39:32;28.25;;;14.80;;
18905;SDS011;9585;51.018;4.282;2023-11-21T02:42:01;29.08;;;15.02;;
18905;SDS011;9585;51.018;4.282;2023-11-21T02:44:29;27.52;;;15.45;;
18905;SDS011;9585;51.018;4.282;2023-11-21T02:46:57;32.92;;;15.90;;
18905;SDS011;9585;51.018;4.282;2023-11-21T02:49:25;29.75;;;16.27;;
18905;SDS011;9585;51.018;4.282;2023-11-21T02:51:54;28.65;;;15.75;;
18905;SDS011;9585;51.018;4.282;2023-11-21T02:54:22;27.40;;;15.65;;
18905;SDS011;9585;51.018;4.282;2023-11-21T02:56:50;29.45;;;15.32;;
18905;SDS011;9585;51.018;4.282;2023-11-21T02:59:19;31.95;;;16.50;;
18905;SDS011;9585;51.018;4.282;2023-11-21T03:01:47;27.48;;;15.05;;
18905;SDS011;9585;51.018;4.282;2023-11-21T03:04:15;23.58;;;14.73;;
18905;SDS011;9585;51.018;4.282;2023-11-21T03:06:43;28.02;;;15.60;;
18905;SDS011;9585;51.018;4.282;2023-11-21T03:09:11;27.40;;;14.98;;
18905;SDS011;9585;51.018;4.282;2023-11-21T03:11:39;24.13;;;14.70;;
18905;SDS011;9585;51.018;4.282;2023-11-21T03:14:06;26.60;;;15.48;;
18905;SDS011;9585;51.018;4.282;2023-11-21T03:16:36;22.02;;;13.15;;
18905;SDS011;9585;51.018;4.282;2023-11-21T03:19:04;20.13;;;12.50;;
18905;SDS011;9585;51.018;4.282;2023-11-21T03:21:33;29.10;;;14.80;;
18905;SDS011;9585;51.018;4.282;2023-11-21T03:24:02;28.02;;;15.13;;
18905;SDS011;9585;51.018;4.282;2023-11-21T03:26:30;18.27;;;12.75;;
18905;SDS011;9585;51.018;4.282;2023-11-21T03:28:57;24.15;;;14.48;;
18905;SDS011;9585;51.018;4.282;2023-11-21T03:31:25;18.55;;;12.25;;
18905;SDS011;9585;51.018;4.282;2023-11-21T03:33:55;17.58;;;11.50;;
18905;SDS011;9585;51.018;4.282;2023-11-21T03:36:22;15.30;;;10.35;;
18905;SDS011;9585;51.018;4.282;2023-11-21T03:38:51;16.88;;;11.25;;
18905;SDS011;9585;51.018;4.282;2023-11-21T03:41:19;16.02;;;10.10;;
18905;SDS011;9585;51.018;4.282;2023-11-21T03:43:47;17.08;;;10.27;;
18905;SDS011;9585;51.018;4.282;2023-11-21T03:46:15;18.30;;;11.10;;
18905;SDS011;9585;51.018;4.282;2023-11-21T03:48:43;15.13;;;10.48;;
18905;SDS011;9585;51.018;4.282;2023-11-21T03:51:14;12.25;;;9.45;;
18905;SDS011;9585;51.018;4.282;2023-11-21T03:53:43;21.02;;;13.00;;
18905;SDS011;9585;51.018;4.282;2023-11-21T03:56:10;17.60;;;11.27;;
18905;SDS011;9585;51.018;4.282;2023-11-21T03:58:37;20.70;;;11.98;;
18905;SDS011;9585;51.018;4.282;2023-11-21T04:01:05;15.73;;;10.45;;
18905;SDS011;9585;51.018;4.282;2023-11-21T04:03:33;13.98;;;9.20;;
18905;SDS011;9585;51.018;4.282;2023-11-21T04:06:01;17.70;;;11.80;;
18905;SDS011;9585;51.018;4.282;2023-11-21T04:08:30;20.23;;;11.57;;
18905;SDS011;9585;51.018;4.282;2023-11-21T04:10:59;15.50;;;10.20;;
18905;SDS011;9585;51.018;4.282;2023-11-21T04:13:26;15.02;;;10.40;;
18905;SDS011;9585;51.018;4.282;2023-11-21T04:15:55;12.85;;;8.75;;
18905;SDS011;9585;51.018;4.282;2023-11-21T04:18:22;15.10;;;10.00;;
18905;SDS011;9585;51.018;4.282;2023-11-21T04:20:51;18.33;;;11.88;;
18905;SDS011;9585;51.018;4.282;2023-11-21T04:23:19;16.20;;;10.85;;
18905;SDS011;9585;51.018;4.282;2023-11-21T04:25:49;15.77;;;11.07;;
18905;SDS011;9585;51.018;4.282;2023-11-21T04:28:19;16.83;;;10.25;;
18905;SDS011;9585;51.018;4.282;2023-11-21T04:30:47;19.13;;;11.93;;
18905;SDS011;9585;51.018;4.282;2023-11-21T04:33:15;12.50;;;9.75;;
18905;SDS011;9585;51.018;4.282;2023-11-21T04:35:45;12.77;;;9.30;;
18905;SDS011;9585;51.018;4.282;2023-11-21T04:38:16;13.10;;;9.70;;
18905;SDS011;9585;51.018;4.282;2023-11-21T04:40:45;15.93;;;10.35;;
18905;SDS011;9585;51.018;4.282;2023-11-21T04:43:22;13.93;;;10.75;;
18905;SDS011;9585;51.018;4.282;2023-11-21T04:45:58;16.95;;;11.02;;
18905;SDS011;9585;51.018;4.282;2023-11-21T04:49:11;21.70;;;13.52;;
18905;SDS011;9585;51.018;4.282;2023-11-21T04:51:39;16.63;;;11.65;;
18905;SDS011;9585;51.018;4.282;2023-11-21T04:54:09;17.55;;;11.88;;
18905;SDS011;9585;51.018;4.282;2023-11-21T04:56:53;13.48;;;9.80;;
18905;SDS011;9585;51.018;4.282;2023-11-21T04:59:22;25.70;;;15.40;;
18905;SDS011;9585;51.018;4.282;2023-11-21T05:01:52;25.45;;;15.48;;
18905;SDS011;9585;51.018;4.282;2023-11-21T05:04:27;24.55;;;14.75;;
18905;SDS011;9585;51.018;4.282;2023-11-21T05:06:55;24.77;;;15.93;;
18905;SDS011;9585;51.018;4.282;2023-11-21T05:09:23;21.98;;;14.23;;
18905;SDS011;9585;51.018;4.282;2023-11-21T05:11:54;23.33;;;14.70;;
18905;SDS011;9585;51.018;4.282;2023-11-21T05:14:23;19.92;;;13.90;;
18905;SDS011;9585;51.018;4.282;2023-11-21T05:16:51;25.65;;;15.32;;
18905;SDS011;9585;51.018;4.282;2023-11-21T05:19:19;20.85;;;14.52;;
18905;SDS011;9585;51.018;4.282;2023-11-21T05:21:47;18.23;;;12.38;;
18905;SDS011;9585;51.018;4.282;2023-11-21T05:24:20;18.38;;;12.48;;
18905;SDS011;9585;51.018;4.282;2023-11-21T05:26:47;22.35;;;13.20;;
18905;SDS011;9585;51.018;4.282;2023-11-21T05:29:15;19.80;;;13.57;;
18905;SDS011;9585;51.018;4.282;2023-11-21T05:31:44;19.73;;;13.80;;
18905;SDS011;9585;51.018;4.282;2023-11-21T05:34:12;25.25;;;15.23;;
18905;SDS011;9585;51.018;4.282;2023-11-21T05:36:42;25.77;;;14.38;;
18905;SDS011;9585;51.018;4.282;2023-11-21T05:39:10;21.00;;;14.02;;
18905;SDS011;9585;51.018;4.282;2023-11-21T05:41:38;19.92;;;13.23;;
18905;SDS011;9585;51.018;4.282;2023-11-21T05:44:06;23.13;;;14.57;;
18905;SDS011;9585;51.018;4.282;2023-11-21T05:46:34;25.33;;;15.50;;
18905;SDS011;9585;51.018;4.282;2023-11-21T05:49:04;22.00;;;15.48;;
18905;SDS011;9585;51.018;4.282;2023-11-21T05:51:33;22.98;;;13.88;;
18905;SDS011;9585;51.018;4.282;2023-11-21T05:54:01;20.67;;;13.45;;
18905;SDS011;9585;51.018;4.282;2023-11-21T05:56:29;22.00;;;13.90;;
18905;SDS011;9585;51.018;4.282;2023-11-21T05:58:57;18.83;;;13.30;;
18905;SDS011;9585;51.018;4.282;2023-11-21T06:01:25;20.63;;;13.82;;
18905;SDS011;9585;51.018;4.282;2023-11-21T06:03:53;18.70;;;12.57;;
18905;SDS011;9585;51.018;4.282;2023-11-21T06:06:22;20.80;;;14.48;;
18905;SDS011;9585;51.018;4.282;2023-11-21T06:08:51;26.75;;;16.60;;
18905;SDS011;9585;51.018;4.282;2023-11-21T06:11:19;19.73;;;14.57;;
18905;SDS011;9585;51.018;4.282;2023-11-21T06:13:46;25.13;;;17.67;;
18905;SDS011;9585;51.018;4.282;2023-11-21T06:16:18;23.88;;;15.98;;
18905;SDS011;9585;51.018;4.282;2023-11-21T06:18:46;24.48;;;16.33;;
18905;SDS011;9585;51.018;4.282;2023-11-21T06:21:14;25.83;;;16.48;;
18905;SDS011;9585;51.018;4.282;2023-11-21T06:23:45;27.75;;;16.17;;
18905;SDS011;9585;51.018;4.282;2023-11-21T06:26:13;25.80;;;17.15;;
18905;SDS011;9585;51.018;4.282;2023-11-21T06:28:40;22.40;;;15.73;;
18905;SDS011;9585;51.018;4.282;2023-11-21T06:31:08;25.75;;;15.40;;
18905;SDS011;9585;51.018;4.282;2023-11-21T06:33:36;25.02;;;16.92;;
18905;SDS011;9585;51.018;4.282;2023-11-21T06:36:03;24.25;;;15.23;;
18905;SDS011;9585;51.018;4.282;2023-11-21T06:38:31;23.45;;;15.48;;
18905;SDS011;9585;51.018;4.282;2023-11-21T06:41:01;24.02;;;15.80;;
18905;SDS011;9585;51.018;4.282;2023-11-21T06:43:29;24.42;;;16.50;;
18905;SDS011;9585;51.018;4.282;2023-11-21T06:45:57;27.08;;;16.88;;
18905;SDS011;9585;51.018;4.282;2023-11-21T06:48:25;27.38;;;16.80;;
18905;SDS011;9585;51.018;4.282;2023-11-21T06:50:56;23.70;;;14.90;;
18905;SDS011;9585;51.018;4.282;2023-11-21T06:53:24;26.52;;;17.73;;
18905;SDS011;9585;51.018;4.282;2023-11-21T06:55:51;27.35;;;17.35;;
18905;SDS011;9585;51.018;4.282;2023-11-21T06:58:21;22.77;;;15.88;;
18905;SDS011;9585;51.018;4.282;2023-11-21T07:00:48;27.65;;;17.60;;
18905;SDS011;9585;51.018;4.282;2023-11-21T07:03:17;27.50;;;18.55;;
18905;SDS011;9585;51.018;4.282;2023-11-21T07:05:45;27.05;;;16.95;;
18905;SDS011;9585;51.018;4.282;2023-11-21T07:08:13;30.15;;;19.30;;
18905;SDS011;9585;51.018;4.282;2023-11-21T07:10:40;29.20;;;18.77;;
18905;SDS011;9585;51.018;4.282;2023-11-21T07:13:08;25.83;;;16.65;;
18905;SDS011;9585;51.018;4.282;2023-11-21T07:15:39;25.15;;;16.35;;
18905;SDS011;9585;51.018;4.282;2023-11-21T07:18:08;26.88;;;17.50;;
18905;SDS011;9585;51.018;4.282;2023-11-21T07:20:36;27.10;;;17.25;;
18905;SDS011;9585;51.018;4.282;2023-11-21T07:23:04;22.77;;;15.15;;
18905;SDS011;9585;51.018;4.282;2023-11-21T07:25:32;25.73;;;16.60;;
18905;SDS011;9585;51.018;4.282;2023-11-21T07:28:00;27.05;;;18.55;;
18905;SDS011;9585;51.018;4.282;2023-11-21T07:30:30;24.42;;;16.38;;
18905;SDS011;9585;51.018;4.282;2023-11-21T07:33:00;21.50;;;14.82;;
18905;SDS011;9585;51.018;4.282;2023-11-21T07:35:28;20.60;;;15.10;;
18905;SDS011;9585;51.018;4.282;2023-11-21T07:37:55;24.50;;;15.40;;
18905;SDS011;9585;51.018;4.282;2023-11-21T07:40:23;23.13;;;15.07;;
18905;SDS011;9585;51.018;4.282;2023-11-21T07:42:52;21.55;;;15.05;;
18905;SDS011;9585;51.018;4.282;2023-11-21T07:45:22;25.77;;;16.38;;
18905;SDS011;9585;51.018;4.282;2023-11-21T07:47:54;22.10;;;14.48;;
18905;SDS011;9585;51.018;4.282;2023-11-21T07:50:24;29.13;;;17.70;;
18905;SDS011;9585;51.018;4.282;2023-11-21T07:52:52;25.55;;;16.65;;
18905;SDS011;9585;51.018;4.282;2023-11-21T07:55:19;24.33;;;16.77;;
18905;SDS011;9585;51.018;4.282;2023-11-21T07:57:47;30.02;;;18.52;;
18905;SDS011;9585;51.018;4.282;2023-11-21T08:00:15;26.65;;;17.00;;
18905;SDS011;9585;51.018;4.282;2023-11-21T08:02:44;25.30;;;16.20;;
18905;SDS011;9585;51.018;4.282;2023-11-21T08:05:12;29.77;;;17.85;;
18905;SDS011;9585;51.018;4.282;2023-11-21T08:07:41;26.88;;;16.90;;
18905;SDS011;9585;51.018;4.282;2023-11-21T08:10:11;29.42;;;17.52;;
18905;SDS011;9585;51.018;4.282;2023-11-21T08:12:39;26.05;;;16.20;;
18905;SDS011;9585;51.018;4.282;2023-11-21T08:15:08;23.92;;;15.65;;
18905;SDS011;9585;51.018;4.282;2023-11-21T08:17:37;22.13;;;15.23;;
18905;SDS011;9585;51.018;4.282;2023-11-21T08:20:05;24.63;;;15.43;;
18905;SDS011;9585;51.018;4.282;2023-11-21T08:22:33;26.55;;;16.58;;
18905;SDS011;9585;51.018;4.282;2023-11-21T08:25:04;28.13;;;18.15;;
18905;SDS011;9585;51.018;4.282;2023-11-21T08:27:33;24.92;;;15.90;;
18905;SDS011;9585;51.018;4.282;2023-11-21T08:30:02;28.48;;;16.90;;
18905;SDS011;9585;51.018;4.282;2023-11-21T08:32:30;30.45;;;17.38;;
18905;SDS011;9585;51.018;4.282;2023-11-21T08:35:01;28.40;;;16.92;;
18905;SDS011;9585;51.018;4.282;2023-11-21T08:37:38;27.52;;;16.08;;
18905;SDS011;9585;51.018;4.282;2023-11-21T08:40:23;24.23;;;16.55;;
18905;SDS011;9585;51.018;4.282;2023-11-21T08:45:36;26.17;;;15.02;;
18905;SDS011;9585;51.018;4.282;2023-11-21T08:48:07;23.00;;;15.45;;
18905;SDS011;9585;51.018;4.282;2023-11-21T12:03:19;5.95;;;3.42;;
18905;SDS011;9585;51.018;4.282;2023-11-21T12:05:47;7.25;;;3.95;;
18905;SDS011;9585;51.018;4.282;2023-11-21T12:08:20;4.25;;;3.47;;
18905;SDS011;9585;51.018;4.282;2023-11-21T12:10:57;5.47;;;3.72;;
18905;SDS011;9585;51.018;4.282;2023-11-21T12:13:24;7.07;;;3.10;;
18905;SDS011;9585;51.018;4.282;2023-11-21T12:15:55;7.50;;;3.40;;
18905;SDS011;9585;51.018;4.282;2023-11-21T12:18:24;5.05;;;3.72;;
18905;SDS011;9585;51.018;4.282;2023-11-21T12:20:52;9.52;;;4.05;;
18905;SDS011;9585;51.018;4.282;2023-11-21T12:23:21;6.90;;;3.80;;
18905;SDS011;9585;51.018;4.282;2023-11-21T12:25:48;4.53;;;3.25;;
18905;SDS011;9585;51.018;4.282;2023-11-21T12:28:16;7.35;;;3.97;;
18905;SDS011;9585;51.018;4.282;2023-11-21T12:31:03;8.45;;;4.60;;
18905;SDS011;9585;51.018;4.282;2023-11-21T13:04:32;6.50;;;5.40;;
18905;SDS011;9585;51.018;4.282;2023-11-21T13:59:13;2.70;;;2.00;;
18905;SDS011;9585;51.018;4.282;2023-11-21T14:02:41;3.00;;;2.10;;
18905;SDS011;9585;51.018;4.282;2023-11-21T14:23:03;2.70;;;2.50;;
18905;SDS011;9585;51.018;4.282;2023-11-21T14:26:10;2.50;;;2.20;;
18905;SDS011;9585;51.018;4.282;2023-11-21T14:29:22;2.08;;;1.80;;
18905;SDS011;9585;51.018;4.282;2023-11-21T14:32:03;2.25;;;2.03;;
18905;SDS011;9585;51.018;4.282;2023-11-21T14:41:52;3.85;;;2.35;;
18905;SDS011;9585;51.018;4.282;2023-11-21T14:44:26;5.82;;;4.25;;
18905;SDS011;9585;51.018;4.282;2023-11-21T15:11:23;4.05;;;3.28;;
18905;SDS011;9585;51.018;4.282;2023-11-21T15:13:56;5.50;;;4.60;;
18905;SDS011;9585;51.018;4.282;2023-11-21T15:16:26;4.38;;;3.30;;
18905;SDS011;9585;51.018;4.282;2023-11-21T15:33:51;5.47;;;3.65;;
18905;SDS011;9585;51.018;4.282;2023-11-21T15:36:19;5.70;;;3.33;;
18905;SDS011;9585;51.018;4.282;2023-11-21T16:27:58;5.70;;;4.40;;
18905;SDS011;9585;51.018;4.282;2023-11-21T16:41:58;6.65;;;4.43;;
18905;SDS011;9585;51.018;4.282;2023-11-21T16:56:43;6.32;;;5.18;;
18905;SDS011;9585;51.018;4.282;2023-11-21T17:10:29;8.70;;;6.00;;
18905;SDS011;9585;51.018;4.282;2023-11-21T17:12:59;8.98;;;7.30;;
18905;SDS011;9585;51.018;4.282;2023-11-21T17:15:29;9.07;;;6.30;;
18905;SDS011;9585;51.018;4.282;2023-11-21T17:18:01;9.57;;;7.60;;
18905;SDS011;9585;51.018;4.282;2023-11-21T17:20:36;12.13;;;9.63;;
18905;SDS011;9585;51.018;4.282;2023-11-21T17:23:04;11.50;;;8.90;;
18905;SDS011;9585;51.018;4.282;2023-11-21T17:25:51;13.48;;;9.98;;
18905;SDS011;9585;51.018;4.282;2023-11-21T17:34:47;13.02;;;8.57;;
18905;SDS011;9585;51.018;4.282;2023-11-21T17:37:49;13.05;;;8.77;;
18905;SDS011;9585;51.018;4.282;2023-11-21T17:44:41;12.52;;;8.35;;
18905;SDS011;9585;51.018;4.282;2023-11-21T17:47:52;11.50;;;9.00;;
18905;SDS011;9585;51.018;4.282;2023-11-21T17:56:57;13.68;;;9.13;;
18905;SDS011;9585;51.018;4.282;2023-11-21T18:07:24;12.13;;;8.23;;
